Time;durP1;ratioP1;P1;durP2;ratioP2;P2;SDS_P1;SDS_P2;PMS_P1;PMS_P2;Temp;Humidity;BMP_temperature;BMP_pressure;BME280_temperature;BME280_humidity;BME280_pressure;Samples;Min_cycle;Max_cycle;Signal;HPM_P1;HPM_P2
2022/11/17 00:00:00;;;;;;;6.82;2.38;;;;;;;9.13;100.00;99088.47;1036089;28;20467;-80
2022/11/17 00:00:31;;;;;;;6.05;2.70;;;;;;;9.11;100.00;99089.78;1035866;28;20304;-80
2022/11/17 00:01:05;;;;;;;8.48;3.75;;;;;;;9.08;100.00;99090.28;1031119;28;20432;-81
2022/11/17 00:01:36;;;;;;;5.18;3.47;;;;;;;9.08;100.00;99084.97;1028423;28;20310;-81
2022/11/17 00:02:08;;;;;;;7.05;3.25;;;;;;;9.07;100.00;99088.69;1032173;28;20296;-81
2022/11/17 00:02:39;;;;;;;8.68;2.53;;;;;;;9.02;100.00;99081.44;1028680;28;20368;-82
2022/11/17 00:03:17;;;;;;;7.25;2.75;;;;;;;9.09;100.00;99081.25;1032056;28;20834;-81
2022/11/17 00:03:49;;;;;;;5.43;3.63;;;;;;;9.05;100.00;99075.66;1031365;28;20352;-81
2022/11/17 00:04:21;;;;;;;3.42;3.00;;;;;;;9.10;100.00;99080.22;1030223;28;20542;-81
2022/11/17 00:04:53;;;;;;;5.30;3.00;;;;;;;9.07;100.00;99068.25;1031800;28;20320;-81
2022/11/17 00:05:24;;;;;;;4.50;2.85;;;;;;;9.08;100.00;99069.03;1025467;28;20784;-81
2022/11/17 00:05:56;;;;;;;9.75;3.50;;;;;;;9.12;100.00;99070.13;1032082;28;20445;-81
2022/11/17 00:06:27;;;;;;;8.30;3.03;;;;;;;9.14;100.00;99078.66;1040811;28;20422;-81
2022/11/17 00:06:59;;;;;;;3.97;3.13;;;;;;;9.17;100.00;99078.16;1044221;28;20374;-81
2022/11/17 00:07:30;;;;;;;3.72;2.55;;;;;;;9.11;100.00;99073.84;1035363;28;20931;-81
2022/11/17 00:08:02;;;;;;;15.13;3.00;;;;;;;9.13;100.00;99075.19;1031544;28;20355;-81
2022/11/17 00:08:34;;;;;;;4.35;2.67;;;;;;;9.10;100.00;99075.69;1032355;28;20377;-81
2022/11/17 00:09:10;;;;;;;8.55;3.55;;;;;;;9.17;100.00;99071.00;1032138;28;20772;-81
2022/11/17 00:09:42;;;;;;;5.13;3.00;;;;;;;9.19;100.00;99076.06;1036978;28;20840;-81
2022/11/17 00:10:14;;;;;;;5.03;2.72;;;;;;;9.15;100.00;99064.31;1035610;28;20297;-81
2022/11/17 00:10:45;;;;;;;9.02;2.95;;;;;;;9.12;100.00;99070.13;1032916;28;20766;-81
2022/11/17 00:11:17;;;;;;;5.68;2.75;;;;;;;9.14;100.00;99063.53;1035582;28;20324;-80
2022/11/17 00:14:32;;;;;;;11.18;3.28;;;;;;;9.14;100.00;99062.72;1039793;28;20134;-81
2022/11/17 00:15:03;;;;;;;5.57;2.63;;;;;;;9.14;100.00;99060.06;1035815;28;20124;-81
2022/11/17 00:15:35;;;;;;;3.67;2.40;;;;;;;9.14;100.00;99057.41;1035882;28;20347;-80
2022/11/17 00:16:06;;;;;;;7.40;3.58;;;;;;;9.10;100.00;99051.81;1035218;28;20488;-81
2022/11/17 00:16:38;;;;;;;4.20;2.97;;;;;;;9.13;100.00;99050.50;1037852;28;20934;-81
2022/11/17 00:17:11;;;;;;;6.15;3.13;;;;;;;9.10;100.00;99051.00;1040668;28;20528;-81
2022/11/17 00:17:45;;;;;;;9.77;3.05;;;;;;;9.09;100.00;99054.72;1043439;28;20793;-81
2022/11/17 00:21:42;;;;;;;3.72;2.60;;;;;;;9.07;100.00;99054.16;1037602;28;20260;-81
2022/11/17 00:22:13;;;;;;;5.30;3.15;;;;;;;9.07;100.00;99054.16;1036445;28;20431;-81
2022/11/17 00:22:45;;;;;;;9.55;3.72;;;;;;;9.09;100.00;99054.72;1035203;28;20320;-82
2022/11/17 00:23:16;;;;;;;10.98;3.45;;;;;;;9.07;100.00;99051.50;1034949;28;20739;-82
2022/11/17 00:23:48;;;;;;;4.43;2.75;;;;;;;9.08;100.00;99047.78;1031538;28;20803;-81
2022/11/17 00:24:22;;;;;;;4.88;2.63;;;;;;;9.06;100.00;99049.91;1035187;28;20296;-81
2022/11/17 00:24:54;;;;;;;10.55;3.25;;;;;;;9.03;100.00;99045.06;1032510;28;20337;-81
2022/11/17 00:25:25;;;;;;;3.08;2.80;;;;;;;9.04;100.00;99046.66;1033069;28;20380;-81
2022/11/17 00:25:57;;;;;;;4.50;3.40;;;;;;;8.99;100.00;99040.25;1031645;28;20395;-81
2022/11/17 00:26:31;;;;;;;6.20;3.22;;;;;;;9.02;100.00;99036.28;1030138;28;20306;-81
2022/11/17 00:27:02;;;;;;;7.78;3.47;;;;;;;8.98;100.00;99038.66;1036448;28;20328;-82
2022/11/17 00:27:35;;;;;;;9.13;3.33;;;;;;;8.96;100.00;99040.75;1031582;28;20806;-81
2022/11/17 00:28:06;;;;;;;7.07;3.25;;;;;;;8.92;100.00;99030.88;1031242;28;20301;-81
2022/11/17 00:28:38;;;;;;;7.53;2.88;;;;;;;8.91;100.00;99038.03;1032326;28;20400;-80
2022/11/17 00:29:09;;;;;;;7.05;2.97;;;;;;;8.94;100.00;99032.25;1035773;28;20895;-81
2022/11/17 00:29:41;;;;;;;10.10;4.10;;;;;;;8.91;100.00;99030.09;1034924;28;20663;-81
2022/11/17 00:34:03;;;;;;;15.38;4.45;;;;;;;8.92;100.00;99044.97;1027550;28;20298;-81
2022/11/17 00:34:24;;;;;;;6.40;3.05;;;;;;;8.91;100.00;99019.47;1039683;28;20298;-81
2022/11/17 00:34:56;;;;;;;12.10;3.45;;;;;;;8.83;100.00;99014.59;1031649;28;20399;-81
2022/11/17 00:35:27;;;;;;;8.35;3.28;;;;;;;8.86;100.00;99008.78;1031535;28;20329;-81
2022/11/17 00:35:59;;;;;;;9.60;3.40;;;;;;;8.90;100.00;99009.91;1030596;28;20758;-81
2022/11/17 00:36:36;;;;;;;6.43;3.47;;;;;;;8.90;100.00;99009.09;1032523;28;20391;-81
2022/11/17 00:37:09;;;;;;;5.15;3.33;;;;;;;8.86;100.00;99008.78;1035183;28;20304;-80
2022/11/17 00:38:14;;;;;;;5.28;3.28;;;;;;;8.83;100.00;99011.16;1035907;28;20415;-81
2022/11/17 00:38:32;;;;;;;8.73;3.80;;;;;;;8.79;100.00;99002.88;1031167;28;20415;-81
2022/11/17 00:39:05;;;;;;;4.05;3.30;;;;;;;8.79;100.00;98999.44;1034245;28;20289;-80
2022/11/17 00:39:36;;;;;;;7.53;3.25;;;;;;;8.81;100.00;99000.78;1035077;28;20509;-80
2022/11/17 00:40:08;;;;;;;5.80;3.38;;;;;;;8.82;100.00;98991.75;1035440;28;20301;-79
2022/11/17 00:40:40;;;;;;;7.95;3.30;;;;;;;8.78;100.00;98995.19;1027462;28;20396;-80
2022/11/17 00:41:11;;;;;;;5.25;3.13;;;;;;;8.74;100.00;98994.84;1023768;28;20401;-80
2022/11/17 00:41:43;;;;;;;6.82;3.58;;;;;;;8.81;100.00;98990.16;1023998;28;20302;-80
2022/11/17 00:42:14;;;;;;;5.07;3.65;;;;;;;8.76;100.00;98987.44;1024390;28;20346;-81
2022/11/17 00:42:46;;;;;;;6.97;3.05;;;;;;;8.73;100.00;98984.47;1031727;28;20301;-80
2022/11/17 00:43:17;;;;;;;5.82;3.40;;;;;;;8.77;100.00;98986.41;1028316;28;20711;-80
2022/11/17 00:43:49;;;;;;;11.32;4.28;;;;;;;8.78;100.00;98988.00;1028074;28;20381;-80
2022/11/17 00:44:20;;;;;;;6.45;4.18;;;;;;;8.80;100.00;98985.91;1031264;28;20754;-81
2022/11/17 00:44:52;;;;;;;7.80;3.38;;;;;;;8.78;100.00;98980.03;1028648;28;20356;-80
2022/11/17 00:45:23;;;;;;;7.10;3.55;;;;;;;8.78;100.00;98988.00;1028037;28;20320;-81
2022/11/17 00:45:55;;;;;;;8.68;3.70;;;;;;;8.75;100.00;98983.16;1027894;28;20878;-80
2022/11/17 00:46:26;;;;;;;7.63;3.47;;;;;;;8.72;100.00;98974.91;1032030;28;20367;-80
2022/11/17 00:46:58;;;;;;;6.68;3.50;;;;;;;8.69;100.00;98986.81;1032028;28;20344;-80
2022/11/17 00:47:29;;;;;;;5.70;3.10;;;;;;;8.72;100.00;98970.41;1035383;28;20789;-80
2022/11/17 00:48:01;;;;;;;6.20;3.17;;;;;;;8.78;100.00;98974.75;1036296;28;20296;-80
2022/11/17 00:48:32;;;;;;;9.55;3.88;;;;;;;8.81;100.00;98968.13;1028144;28;20898;-80
2022/11/17 00:49:05;;;;;;;5.90;2.75;;;;;;;8.78;100.00;98968.63;1032674;28;20379;-80
2022/11/17 00:49:36;;;;;;;7.05;3.45;;;;;;;8.77;100.00;98967.81;1039759;28;20350;-80
2022/11/17 00:50:08;;;;;;;8.38;3.65;;;;;;;8.77;100.00;98961.72;1029479;28;20381;-80
2022/11/17 00:50:40;;;;;;;10.07;3.55;;;;;;;8.81;100.00;98963.63;1032155;28;20297;-80
2022/11/17 00:51:11;;;;;;;8.38;3.92;;;;;;;8.76;100.00;98957.44;1038426;28;20292;-80
2022/11/17 00:51:43;;;;;;;5.03;3.38;;;;;;;8.79;100.00;98963.06;1039433;28;20304;-80
2022/11/17 00:52:14;;;;;;;6.75;3.70;;;;;;;8.78;100.00;98953.50;1035894;28;20296;-80
2022/11/17 00:52:46;;;;;;;8.85;4.53;;;;;;;8.73;100.00;98953.44;1038836;28;20343;-81
2022/11/17 00:53:17;;;;;;;4.28;3.20;;;;;;;8.72;100.00;98949.16;1035635;28;20648;-80
2022/11/17 00:53:49;;;;;;;5.20;3.08;;;;;;;8.72;100.00;98965.09;1035127;28;20390;-80
2022/11/17 00:54:21;;;;;;;7.68;3.22;;;;;;;8.75;100.00;98953.19;1035498;28;20384;-80
2022/11/17 00:54:53;;;;;;;11.27;4.53;;;;;;;8.74;100.00;98951.56;1027933;28;20389;-80
2022/11/17 00:55:24;;;;;;;8.55;3.58;;;;;;;8.79;100.00;98955.09;1032387;28;20351;-80
2022/11/17 00:55:56;;;;;;;8.60;3.50;;;;;;;8.78;100.00;98947.41;1035555;28;20674;-80
2022/11/17 00:56:28;;;;;;;5.82;3.40;;;;;;;8.76;100.00;98939.66;1032404;28;20380;-80
2022/11/17 00:56:59;;;;;;;7.75;4.30;;;;;;;8.71;100.00;98936.94;1035847;28;20296;-80
2022/11/17 00:57:30;;;;;;;5.75;3.17;;;;;;;8.73;100.00;98924.22;1031021;28;20349;-80
2022/11/17 00:58:02;;;;;;;4.38;3.55;;;;;;;8.68;100.00;98932.16;1031761;28;20368;-80
2022/11/17 00:58:35;;;;;;;7.85;3.88;;;;;;;8.69;100.00;98931.09;1028137;28;20386;-80
2022/11/17 00:59:06;;;;;;;7.75;4.10;;;;;;;8.68;100.00;98935.59;1033805;28;20376;-81
2022/11/17 00:59:38;;;;;;;4.63;3.08;;;;;;;8.70;100.00;98927.38;1043642;28;20473;-80
2022/11/17 01:00:10;;;;;;;8.63;3.42;;;;;;;8.76;100.00;98928.22;1043980;28;20298;-80
2022/11/17 01:00:41;;;;;;;4.40;3.30;;;;;;;8.68;100.00;98927.63;1035929;28;20304;-80
2022/11/17 01:01:13;;;;;;;6.85;3.47;;;;;;;8.70;100.00;98927.38;1035648;28;20308;-80
2022/11/17 01:01:45;;;;;;;5.82;3.35;;;;;;;8.68;100.00;98918.88;1035077;28;20362;-80
2022/11/17 01:02:17;;;;;;;6.68;3.72;;;;;;;8.76;100.00;98910.44;1021858;28;20307;-80
2022/11/17 01:02:48;;;;;;;8.50;4.25;;;;;;;8.78;100.00;98916.34;1024007;28;20385;-80
2022/11/17 01:03:20;;;;;;;7.25;3.53;;;;;;;8.74;100.00;98907.25;1023630;28;20303;-80
2022/11/17 01:04:01;;;;;;;6.15;2.72;;;;;;;8.73;100.00;98915.47;1027404;28;20317;-80
2022/11/17 01:04:33;;;;;;;10.65;3.70;;;;;;;8.74;100.00;98914.41;1029639;28;20298;-80
2022/11/17 01:05:05;;;;;;;7.60;4.50;;;;;;;8.73;100.00;98913.59;1033030;28;20379;-80
2022/11/17 01:05:37;;;;;;;10.35;3.45;;;;;;;8.73;100.00;98904.84;1033065;28;20376;-80
2022/11/17 01:06:13;;;;;;;6.43;3.35;;;;;;;8.75;100.00;98911.50;1033583;28;20289;-80
2022/11/17 01:06:47;;;;;;;9.40;4.18;;;;;;;8.75;100.00;98911.50;1031217;28;20300;-80
2022/11/17 01:07:19;;;;;;;8.77;3.55;;;;;;;8.79;100.00;98906.53;1028999;28;20369;-80
2022/11/17 01:07:52;;;;;;;5.47;2.95;;;;;;;8.74;100.00;98904.59;1029130;28;20692;-80
2022/11/17 01:08:23;;;;;;;7.20;3.60;;;;;;;8.72;100.00;98903.25;1032072;28;20359;-80
2022/11/17 01:08:55;;;;;;;9.20;3.63;;;;;;;8.76;100.00;98891.88;1038555;28;20332;-80
2022/11/17 01:09:26;;;;;;;7.38;3.85;;;;;;;8.77;100.00;98892.69;1039960;28;20303;-80
2022/11/17 01:09:58;;;;;;;6.70;2.88;;;;;;;8.76;100.00;98891.88;1042996;28;20307;-80
2022/11/17 01:10:29;;;;;;;5.07;2.72;;;;;;;8.76;100.00;98897.19;1039884;28;20436;-80
2022/11/17 01:11:19;;;;;;;8.57;3.90;;;;;;;8.73;100.00;98888.91;1039314;28;20308;-80
2022/11/17 01:11:51;;;;;;;9.30;3.60;;;;;;;8.72;100.00;98889.97;1038538;28;20299;-80
2022/11/17 01:12:23;;;;;;;8.95;3.47;;;;;;;8.73;100.00;98895.03;1035302;28;20300;-81
2022/11/17 01:12:54;;;;;;;6.10;3.20;;;;;;;8.72;100.00;98889.97;1031735;28;20348;-80
2022/11/17 01:13:26;;;;;;;8.52;3.78;;;;;;;8.72;100.00;98890.78;1039350;28;20300;-80
2022/11/17 01:13:59;;;;;;;6.18;4.00;;;;;;;8.76;100.00;98883.09;1039943;28;20485;-80
2022/11/17 01:14:31;;;;;;;9.57;3.63;;;;;;;8.72;100.00;98885.47;1035606;28;20667;-81
2022/11/17 01:15:03;;;;;;;6.15;3.63;;;;;;;8.66;100.00;98878.50;1035600;28;20309;-80
2022/11/17 01:15:35;;;;;;;4.63;3.28;;;;;;;8.70;100.00;98871.66;1027329;28;20321;-80
2022/11/17 01:16:15;;;;;;;2.97;2.40;;;;;;;8.72;100.00;98888.13;1027511;28;20360;-80
2022/11/17 01:16:46;;;;;;;8.82;3.42;;;;;;;8.74;100.00;98863.97;1027117;28;20338;-80
2022/11/17 01:17:18;;;;;;;6.35;3.28;;;;;;;8.77;100.00;98882.88;1027686;28;20301;-80
2022/11/17 01:17:49;;;;;;;10.88;4.88;;;;;;;8.68;100.00;98873.75;1030245;28;20649;-81
2022/11/17 01:18:21;;;;;;;6.18;3.50;;;;;;;8.72;100.00;98876.69;1031984;28;20313;-79
2022/11/17 01:18:52;;;;;;;8.07;3.60;;;;;;;8.76;100.00;98881.25;1036168;28;20387;-81
2022/11/17 01:19:24;;;;;;;3.60;2.78;;;;;;;8.71;100.00;98873.25;1039304;28;20300;-80
2022/11/17 01:19:55;;;;;;;6.25;2.88;;;;;;;8.71;100.00;98878.56;1039634;28;20539;-80
2022/11/17 01:20:27;;;;;;;9.50;3.13;;;;;;;8.76;100.00;98875.94;1040058;28;20307;-81
2022/11/17 01:21:03;;;;;;;10.77;4.35;;;;;;;8.74;100.00;98882.56;1039504;28;20723;-81
2022/11/17 01:21:35;;;;;;;5.05;2.80;;;;;;;8.75;100.00;98877.00;1035375;28;20430;-80
2022/11/17 01:22:06;;;;;;;6.55;3.35;;;;;;;8.71;100.00;98865.28;1033925;28;20395;-80
2022/11/17 01:22:38;;;;;;;6.57;3.67;;;;;;;8.71;100.00;98872.44;1036610;28;20300;-80
2022/11/17 01:23:09;;;;;;;9.43;3.05;;;;;;;8.76;100.00;98869.84;1035727;28;20304;-80
2022/11/17 01:23:42;;;;;;;5.50;3.55;;;;;;;8.77;100.00;98866.94;1035771;28;20328;-80
2022/11/17 01:24:15;;;;;;;3.92;2.60;;;;;;;8.78;100.00;98868.56;1039780;28;20296;-80
2022/11/17 01:24:46;;;;;;;7.13;3.88;;;;;;;8.76;100.00;98865.31;1038856;28;20813;-80
2022/11/17 01:25:18;;;;;;;7.93;3.15;;;;;;;8.77;100.00;98866.94;1027873;28;20376;-80
2022/11/17 01:25:49;;;;;;;9.65;4.65;;;;;;;8.78;100.00;98884.47;1027284;28;20668;-80
2022/11/17 01:26:23;;;;;;;3.67;3.00;;;;;;;8.77;100.00;98871.47;1026885;28;20349;-80
2022/11/17 01:26:55;;;;;;;6.32;3.17;;;;;;;8.80;100.00;98876.25;1027763;28;20393;-80
2022/11/17 01:27:26;;;;;;;10.50;3.80;;;;;;;8.77;100.00;98874.13;1031947;28;20695;-80
2022/11/17 01:27:58;;;;;;;7.60;4.45;;;;;;;8.77;100.00;98880.22;1032960;28;20472;-80
2022/11/17 01:28:30;;;;;;;3.92;3.05;;;;;;;8.76;100.00;98870.63;1033069;28;20357;-81
2022/11/17 01:29:02;;;;;;;7.05;3.17;;;;;;;8.79;100.00;98869.34;1038943;28;20732;-80
2022/11/17 01:29:34;;;;;;;3.45;2.78;;;;;;;8.74;100.00;98872.75;1034969;28;20490;-81
2022/11/17 01:30:06;;;;;;;10.55;3.08;;;;;;;8.71;100.00;98867.94;1031183;28;20666;-81
2022/11/17 01:30:38;;;;;;;5.40;2.72;;;;;;;8.71;100.00;98869.78;1027039;28;20305;-81
2022/11/17 01:31:12;;;;;;;4.75;2.88;;;;;;;8.74;100.00;98864.78;1028100;28;20354;-81
2022/11/17 01:31:47;;;;;;;8.18;3.22;;;;;;;8.74;100.00;98869.28;1032644;28;20880;-80
2022/11/17 01:32:19;;;;;;;6.57;3.15;;;;;;;8.77;100.00;98866.16;1036681;28;20430;-80
2022/11/17 01:32:50;;;;;;;11.60;3.40;;;;;;;8.76;100.00;98860.00;1034900;28;20904;-81
2022/11/17 01:33:22;;;;;;;11.55;3.60;;;;;;;8.73;100.00;98852.56;1035838;28;20781;-81
2022/11/17 01:33:54;;;;;;;9.32;2.88;;;;;;;8.73;100.00;98865.03;1039469;28;20307;-81
2022/11/17 01:34:26;;;;;;;5.00;2.80;;;;;;;8.72;100.00;98855.47;1035277;28;20355;-81
2022/11/17 01:34:57;;;;;;;8.00;2.85;;;;;;;8.73;100.00;98865.84;1039302;28;20387;-81
2022/11/17 01:35:28;;;;;;;5.32;2.95;;;;;;;8.75;100.00;98855.75;1035410;28;20304;-81
2022/11/17 01:36:05;;;;;;;5.53;2.90;;;;;;;8.74;100.00;98851.50;1031292;28;20304;-81
2022/11/17 01:37:29;;;;;;;3.95;3.45;;;;;;;8.66;100.00;98841.38;1034622;28;20391;-81
2022/11/17 01:38:01;;;;;;;5.05;2.65;;;;;;;8.72;100.00;98837.69;1039182;28;20735;-80
2022/11/17 01:38:33;;;;;;;5.57;3.13;;;;;;;8.72;100.00;98832.38;1038264;28;20454;-81
2022/11/17 01:39:04;;;;;;;5.10;2.92;;;;;;;8.71;100.00;98841.41;1031182;28;20795;-81
2022/11/17 01:39:36;;;;;;;7.45;3.22;;;;;;;8.74;100.00;98834.78;1029843;28;20320;-82
2022/11/17 01:40:09;;;;;;;4.90;3.92;;;;;;;8.72;100.00;98821.75;1031209;28;20305;-81
2022/11/17 01:40:40;;;;;;;4.13;2.78;;;;;;;8.71;100.00;98825.47;1031650;28;20372;-81
2022/11/17 01:41:20;;;;;;;9.82;2.97;;;;;;;8.72;100.00;98820.97;1030863;28;20348;-81
2022/11/17 01:41:52;;;;;;;2.85;2.58;;;;;;;8.77;100.00;98824.47;1030916;28;20380;-81
2022/11/17 01:42:25;;;;;;;8.05;3.40;;;;;;;8.74;100.00;98818.84;1028483;28;20309;-81
2022/11/17 01:42:56;;;;;;;5.10;3.13;;;;;;;8.70;100.00;98823.88;1030790;28;20444;-81
2022/11/17 01:43:40;;;;;;;8.38;2.55;;;;;;;8.68;100.00;98821.47;1024254;28;20381;-81
2022/11/17 01:44:56;;;;;;;12.57;3.35;;;;;;;8.70;100.00;98815.91;1029269;28;20342;-81
2022/11/17 01:45:28;;;;;;;3.58;2.47;;;;;;;8.69;100.00;98806.34;1033789;28;20320;-82
2022/11/17 01:45:59;;;;;;;8.50;2.72;;;;;;;8.74;100.00;98809.03;1039127;28;20382;-81
2022/11/17 01:46:35;;;;;;;4.03;2.33;;;;;;;8.73;100.00;98796.81;1033888;28;20424;-81
2022/11/17 01:47:37;;;;;;;5.72;2.83;;;;;;;8.78;100.00;98790.78;1030957;28;20483;-81
2022/11/17 01:48:11;;;;;;;4.20;2.58;;;;;;;8.73;100.00;98790.72;1028233;28;20305;-81
2022/11/17 01:48:43;;;;;;;2.80;2.30;;;;;;;8.74;100.00;98779.03;1035819;28;20312;-81
2022/11/17 01:49:20;;;;;;;5.80;2.67;;;;;;;8.76;100.00;98780.38;1033492;28;20384;-81
2022/11/17 01:49:59;;;;;;;4.00;2.13;;;;;;;8.78;100.00;98788.91;1032718;28;20431;-81
2022/11/17 01:50:42;;;;;;;11.40;3.15;;;;;;;8.76;100.00;98795.50;1031065;28;21575;-81
2022/11/17 01:51:15;;;;;;;5.15;2.58;;;;;;;8.76;100.00;98788.34;1038397;28;20292;-81
2022/11/17 01:51:52;;;;;;;5.25;2.90;;;;;;;8.76;100.00;98785.69;1031169;28;20360;-81
2022/11/17 01:52:24;;;;;;;10.48;4.90;;;;;;;8.72;100.00;98795.22;1030624;28;20344;-81
2022/11/17 01:52:58;;;;;;;4.30;2.63;;;;;;;8.75;100.00;98789.41;1024650;28;20374;-81
2022/11/17 01:53:32;;;;;;;9.30;3.28;;;;;;;8.76;100.00;98779.59;1027892;28;20301;-81
2022/11/17 01:54:05;;;;;;;7.03;2.90;;;;;;;8.73;100.00;98775.59;1031006;28;20336;-81
2022/11/17 01:54:39;;;;;;;3.22;2.50;;;;;;;8.80;100.00;98786.00;1032348;28;20337;-81
2022/11/17 01:55:11;;;;;;;6.18;2.08;;;;;;;8.74;100.00;98782.50;1035119;28;20695;-82
2022/11/17 01:55:43;;;;;;;4.43;3.13;;;;;;;8.78;100.00;98788.13;1038668;28;20430;-81
2022/11/17 01:56:21;;;;;;;7.47;3.20;;;;;;;8.77;100.00;98784.66;1034748;28;20358;-81
2022/11/17 01:57:01;;;;;;;6.30;2.35;;;;;;;8.79;100.00;98779.09;1027441;28;20696;-81
2022/11/17 01:57:37;;;;;;;5.03;2.67;;;;;;;8.75;100.00;98784.09;1028952;28;20716;-81
2022/11/17 01:58:13;;;;;;;4.57;2.67;;;;;;;8.72;100.00;98810.34;1030076;28;20321;-81
2022/11/17 01:58:51;;;;;;;8.90;3.03;;;;;;;8.73;100.00;98786.22;1030887;28;20473;-81
2022/11/17 01:59:33;;;;;;;4.13;3.08;;;;;;;8.76;100.00;98779.59;1031759;28;20322;-81
2022/11/17 02:00:07;;;;;;;7.95;3.83;;;;;;;8.72;100.00;98774.00;1034769;28;20381;-82
2022/11/17 02:00:39;;;;;;;7.80;3.22;;;;;;;8.74;100.00;98771.88;1034652;28;20336;-82
2022/11/17 02:01:10;;;;;;;5.18;2.90;;;;;;;8.71;100.00;98771.59;1030793;28;20316;-82
2022/11/17 02:01:54;;;;;;;5.82;2.97;;;;;;;8.70;100.00;98765.47;1031097;28;20357;-82
2022/11/17 02:02:27;;;;;;;8.43;3.28;;;;;;;8.71;100.00;98768.94;1033187;28;20384;-81
2022/11/17 02:02:59;;;;;;;4.82;2.67;;;;;;;8.72;100.00;98770.53;1033056;28;20301;-81
2022/11/17 02:03:34;;;;;;;3.67;2.58;;;;;;;8.73;100.00;98764.16;1028657;28;20303;-81
2022/11/17 02:04:06;;;;;;;11.35;3.03;;;;;;;8.73;100.00;98757.00;1035127;28;20312;-82
2022/11/17 02:04:44;;;;;;;9.65;3.25;;;;;;;8.72;100.00;98758.06;1034897;28;20319;-82
2022/11/17 02:05:15;;;;;;;9.77;3.00;;;;;;;8.74;100.00;98769.22;1024394;28;20386;-81
2022/11/17 02:05:54;;;;;;;8.20;2.60;;;;;;;8.73;100.00;98770.28;1032813;28;20852;-81
2022/11/17 02:06:30;;;;;;;4.95;2.88;;;;;;;8.72;100.00;98758.06;1030958;28;20421;-82
2022/11/17 02:07:10;;;;;;;6.82;3.17;;;;;;;8.78;100.00;98765.03;1033422;28;20293;-82
2022/11/17 02:07:43;;;;;;;5.45;3.35;;;;;;;8.81;100.00;98751.25;1031144;28;20666;-81
2022/11/17 02:08:16;;;;;;;3.55;2.47;;;;;;;8.80;100.00;98760.25;1035487;28;20054;-81
2022/11/17 02:08:48;;;;;;;6.18;2.83;;;;;;;8.81;100.00;98761.06;1032064;28;20428;-81
2022/11/17 02:09:21;;;;;;;8.68;3.50;;;;;;;8.81;100.00;98756.56;1030966;28;20383;-81
2022/11/17 02:09:53;;;;;;;3.67;2.35;;;;;;;8.80;100.00;98749.66;1026841;28;20820;-81
2022/11/17 02:10:25;;;;;;;10.07;3.78;;;;;;;8.82;100.00;98742.22;1027980;28;20755;-81
2022/11/17 02:10:59;;;;;;;6.55;3.08;;;;;;;8.83;100.00;98743.81;1031681;28;20699;-82
2022/11/17 02:11:34;;;;;;;10.07;2.97;;;;;;;8.83;100.00;98743.81;1031616;28;20297;-81
2022/11/17 02:12:11;;;;;;;2.88;2.25;;;;;;;8.84;100.00;98749.94;1034876;28;20747;-82
2022/11/17 02:12:44;;;;;;;7.70;3.28;;;;;;;8.84;100.00;98750.72;1031155;28;20694;-82
2022/11/17 02:13:15;;;;;;;8.80;2.88;;;;;;;8.87;100.00;98744.91;1031121;28;20436;-81
2022/11/17 02:13:47;;;;;;;6.22;3.05;;;;;;;8.87;100.00;98750.22;1032042;28;20353;-82
2022/11/17 02:14:19;;;;;;;3.20;2.53;;;;;;;8.84;100.00;98737.47;1035505;28;20343;-82
2022/11/17 02:14:52;;;;;;;8.38;2.97;;;;;;;8.82;100.00;98752.84;1031300;28;20369;-81
2022/11/17 02:15:24;;;;;;;5.97;3.10;;;;;;;8.84;100.00;98744.63;1026855;28;20305;-82
2022/11/17 02:15:55;;;;;;;6.32;2.83;;;;;;;8.83;100.00;98741.16;1026420;28;20730;-82
2022/11/17 02:16:27;;;;;;;5.45;3.08;;;;;;;8.86;100.00;98740.66;1028251;28;20450;-81
2022/11/17 02:16:58;;;;;;;7.03;3.17;;;;;;;8.83;100.00;98746.47;1035583;28;20375;-82
2022/11/17 02:17:41;;;;;;;7.72;2.67;;;;;;;8.83;100.00;98741.16;1032777;28;20301;-81
2022/11/17 02:18:16;;;;;;;11.32;3.13;;;;;;;8.80;100.00;98744.34;1031041;28;20775;-81
2022/11/17 02:18:48;;;;;;;6.57;2.38;;;;;;;8.84;100.00;98734.00;1031279;28;20925;-81
2022/11/17 02:19:21;;;;;;;6.65;2.97;;;;;;;8.81;100.00;98739.81;1035837;28;20373;-81
2022/11/17 02:20:04;;;;;;;3.20;2.72;;;;;;;8.81;100.00;98730.00;1035021;28;20316;-81
2022/11/17 02:20:52;;;;;;;4.18;2.20;;;;;;;8.82;100.00;98728.94;1034984;28;20305;-81
2022/11/17 02:21:50;;;;;;;11.55;2.83;;;;;;;8.84;100.00;98724.19;1034883;28;20296;-81
2022/11/17 02:22:50;;;;;;;6.95;3.92;;;;;;;8.84;100.00;98723.38;1034448;28;20431;-82
2022/11/17 02:23:52;;;;;;;8.10;2.97;;;;;;;8.83;100.00;98727.91;1034373;28;20312;-82
2022/11/17 02:25:11;;;;;;;5.32;2.92;;;;;;;8.82;100.00;98739.56;1038298;28;20296;-81
2022/11/17 02:26:14;;;;;;;6.93;2.60;;;;;;;8.82;100.00;98736.91;1043076;28;20425;-81
2022/11/17 02:27:03;;;;;;;5.43;2.50;;;;;;;8.83;100.00;98738.50;1030486;28;20799;-81
2022/11/17 02:27:49;;;;;;;6.25;2.10;;;;;;;8.81;100.00;98740.63;1035191;28;20305;-81
2022/11/17 02:28:48;;;;;;;8.25;2.55;;;;;;;8.84;100.00;98739.31;1034745;28;20285;-81
2022/11/17 02:29:43;;;;;;;2.85;1.92;;;;;;;8.83;100.00;98727.91;1038415;28;20454;-81
2022/11/17 02:30:19;;;;;;;6.85;2.40;;;;;;;8.78;100.00;98708.50;1037945;28;20304;-80
2022/11/17 02:31:10;;;;;;;10.50;4.55;;;;;;;8.77;100.00;98718.31;1033460;28;21153;-81
2022/11/17 02:32:04;;;;;;;4.68;2.58;;;;;;;8.81;100.00;98714.09;1033190;28;20328;-80
2022/11/17 02:33:11;;;;;;;8.55;2.55;;;;;;;8.77;100.00;98725.47;1032646;28;21011;-80
2022/11/17 02:34:01;;;;;;;3.30;2.28;;;;;;;8.74;100.00;98740.03;1031499;28;20703;-82
2022/11/17 02:35:01;;;;;;;3.10;2.05;;;;;;;8.77;100.00;98722.81;1034205;28;20374;-81
2022/11/17 02:35:59;;;;;;;2.97;2.58;;;;;;;8.80;100.00;98717.78;1035299;28;20880;-81
2022/11/17 02:36:36;;;;;;;5.10;2.88;;;;;;;8.79;100.00;98718.84;1042959;28;20306;-81
2022/11/17 02:37:19;;;;;;;5.07;2.42;;;;;;;8.74;100.00;98716.13;1042737;28;20409;-82
2022/11/17 02:38:32;;;;;;;3.35;2.33;;;;;;;8.80;100.00;98717.78;1033187;28;20735;-81
2022/11/17 02:39:20;;;;;;;11.38;2.90;;;;;;;8.73;100.00;98722.50;1031685;28;20301;-81
2022/11/17 02:40:21;;;;;;;5.82;2.92;;;;;;;8.75;100.00;98725.69;1035256;28;20439;-80
2022/11/17 02:41:11;;;;;;;7.80;2.90;;;;;;;8.78;100.00;98719.91;1039378;28;20630;-82
2022/11/17 02:41:48;;;;;;;3.00;2.78;;;;;;;8.74;100.00;98732.06;1032423;28;20690;-82
2022/11/17 02:44:03;;;;;;;3.40;2.55;;;;;;;8.84;100.00;98718.88;1030716;28;20476;-81
2022/11/17 02:44:44;;;;;;;7.90;4.13;;;;;;;8.80;100.00;98723.09;1030857;28;20848;-81
2022/11/17 02:45:21;;;;;;;5.55;2.50;;;;;;;8.76;100.00;98727.28;1030055;28;20510;-80
2022/11/17 02:45:56;;;;;;;6.18;2.60;;;;;;;8.82;100.00;98726.28;1031124;28;20332;-82
2022/11/17 02:46:32;;;;;;;5.82;2.92;;;;;;;8.85;100.00;98706.41;1035058;28;20659;-81
2022/11/17 02:47:07;;;;;;;4.13;2.50;;;;;;;8.84;100.00;98721.53;1033010;28;20356;-81
2022/11/17 02:47:40;;;;;;;3.45;2.55;;;;;;;8.83;100.00;98719.13;1032939;28;20297;-82
2022/11/17 02:48:20;;;;;;;3.67;2.20;;;;;;;8.86;100.00;98706.13;1034583;28;20366;-81
2022/11/17 02:48:56;;;;;;;6.53;1.92;;;;;;;8.85;100.00;98720.47;1033354;28;20384;-82
2022/11/17 02:49:41;;;;;;;4.70;2.75;;;;;;;8.86;100.00;98708.78;1031066;28;20293;-81
2022/11/17 02:50:14;;;;;;;4.82;3.30;;;;;;;8.85;100.00;98712.50;1023576;28;20307;-82
2022/11/17 02:50:47;;;;;;;8.63;2.70;;;;;;;8.86;100.00;98715.97;1032945;28;20658;-81
2022/11/17 02:51:21;;;;;;;3.53;2.50;;;;;;;8.88;100.00;98709.34;1030952;28;20305;-81
2022/11/17 02:51:54;;;;;;;10.18;2.20;;;;;;;8.91;100.00;98708.81;1033205;28;20376;-81
2022/11/17 02:52:26;;;;;;;4.45;1.83;;;;;;;8.89;100.00;98718.91;1035729;28;20378;-81
2022/11/17 02:52:58;;;;;;;3.03;2.70;;;;;;;8.89;100.00;98712.78;1035423;28;20671;-81
2022/11/17 02:53:30;;;;;;;10.15;2.95;;;;;;;8.88;100.00;98706.69;1031244;28;20390;-81
2022/11/17 02:54:02;;;;;;;3.40;2.35;;;;;;;8.90;100.00;98746.25;1026715;28;20385;-81
2022/11/17 02:54:34;;;;;;;3.13;2.42;;;;;;;8.92;100.00;98721.03;1027477;28;20356;-81
2022/11/17 02:55:08;;;;;;;10.15;3.20;;;;;;;8.92;100.00;98710.41;1030841;28;20392;-82
2022/11/17 02:55:39;;;;;;;12.65;4.35;;;;;;;8.89;100.00;98716.25;1036004;28;20337;-82
2022/11/17 02:56:11;;;;;;;4.05;3.20;;;;;;;8.91;100.00;98719.44;1034529;28;20311;-82
2022/11/17 02:56:43;;;;;;;6.07;3.33;;;;;;;8.91;100.00;98708.81;1034521;28;20307;-82
2022/11/17 02:57:28;;;;;;;11.35;3.00;;;;;;;8.85;100.00;98704.53;1027837;28;20309;-81